createdAt,value
2022-08-05T00:02:27.644Z,2.00
2022-08-05T00:04:56.200Z,2.37
2022-08-05T00:07:58.970Z,1.93
2022-08-05T00:10:10.433Z,2.33
2022-08-05T00:12:55.873Z,2.17
2022-08-05T00:15:55.227Z,2.70
2022-08-05T00:18:21.514Z,2.20
2022-08-05T00:20:50.624Z,2.30
2022-08-05T00:23:17.775Z,2.10
2022-08-05T00:26:05.148Z,2.30
2022-08-05T00:28:31.924Z,2.13
2022-08-05T00:31:02.768Z,1.83
2022-08-05T00:34:53.547Z,1.97
2022-08-05T00:37:12.516Z,2.63
2022-08-05T00:39:05.290Z,2.10
2022-08-05T00:41:52.249Z,2.30
2022-08-05T00:44:31.011Z,1.97
2022-08-05T00:47:03.926Z,1.87
2022-08-05T00:49:32.578Z,2.30
2022-08-05T00:52:00.307Z,2.00
2022-08-05T00:54:28.168Z,2.87
2022-08-05T00:56:57.121Z,2.37
2022-08-05T00:59:23.810Z,2.30
2022-08-05T01:01:51.102Z,2.23
2022-08-05T01:04:20.155Z,2.33
2022-08-05T01:06:53.710Z,2.20
2022-08-05T01:09:22.708Z,2.10
2022-08-05T01:11:51.815Z,1.77
2022-08-05T01:14:36.973Z,2.10
2022-08-05T01:17:07.571Z,2.13
2022-08-05T01:20:02.185Z,1.93
2022-08-05T01:22:24.404Z,2.20
2022-08-05T01:25:13.622Z,2.20
2022-08-05T01:27:59.159Z,2.90
2022-08-05T01:30:34.667Z,2.10
2022-08-05T01:33:06.258Z,2.57
2022-08-05T01:35:51.807Z,2.07
2022-08-05T01:38:27.425Z,2.33
2022-08-05T01:40:59.381Z,2.30
2022-08-05T01:43:28.299Z,2.17
2022-08-05T01:45:56.712Z,2.13
2022-08-05T01:48:28.571Z,2.30
2022-08-05T01:50:56.442Z,2.40
2022-08-05T01:53:54.805Z,2.17
2022-08-05T01:56:13.385Z,2.90
2022-08-05T01:59:03.313Z,2.90
2022-08-05T02:01:39.709Z,2.87
2022-08-05T02:04:10.382Z,2.40
2022-08-05T02:06:39.079Z,2.43
2022-08-05T02:09:07.152Z,2.30
2022-08-05T02:12:12.961Z,2.40
2022-08-05T02:14:53.247Z,2.40
2022-08-05T02:18:28.784Z,2.63
2022-08-05T02:20:23.755Z,2.33
2022-08-05T02:22:59.750Z,2.87
2022-08-05T02:25:33.382Z,2.70
2022-08-05T02:28:09.123Z,2.63
2022-08-05T02:30:54.239Z,2.30
2022-08-05T02:33:36.039Z,2.67
2022-08-05T02:36:10.310Z,2.30
2022-08-05T02:38:42.912Z,2.80
2022-08-05T02:41:16.949Z,2.60
2022-08-05T02:44:06.627Z,2.60
2022-08-05T02:46:34.515Z,2.00
2022-08-05T02:49:01.939Z,2.70
2022-08-05T02:52:02.671Z,2.60
2022-08-05T02:54:35.794Z,2.50
2022-08-05T02:57:10.168Z,2.90
2022-08-05T02:59:56.195Z,2.83
2022-08-05T03:02:29.496Z,2.90
2022-08-05T03:04:57.892Z,2.10
2022-08-05T03:07:56.630Z,2.80
2022-08-05T03:10:24.419Z,2.30
2022-08-05T03:12:52.580Z,2.03
2022-08-05T03:15:21.222Z,2.70
2022-08-05T03:17:54.081Z,2.60
2022-08-05T03:20:22.387Z,3.20
2022-08-05T03:22:51.020Z,2.50
2022-08-05T03:26:03.455Z,3.70
2022-08-05T03:28:08.711Z,2.70
2022-08-05T03:30:36.788Z,2.53
2022-08-05T03:33:07.401Z,2.93
2022-08-05T03:35:40.738Z,2.63
2022-08-05T03:38:12.618Z,2.13
2022-08-05T03:40:45.233Z,2.63
2022-08-05T03:44:09.663Z,2.20
2022-08-05T03:46:05.037Z,2.77
2022-08-05T03:48:35.589Z,3.73
2022-08-05T03:52:37.213Z,2.47
2022-08-05T03:56:00.723Z,2.40
2022-08-05T03:57:18.667Z,2.50
2022-08-05T03:59:54.849Z,2.33
2022-08-05T04:02:38.549Z,3.03
2022-08-05T04:05:09.609Z,3.00
2022-08-05T04:07:57.430Z,2.90
2022-08-05T04:10:33.367Z,3.00
2022-08-05T04:13:05.670Z,2.13
2022-08-05T04:15:36.122Z,2.13
2022-08-05T04:18:07.913Z,2.20
2022-08-05T04:20:36.795Z,2.53
2022-08-05T04:23:03.677Z,2.50
2022-08-05T04:25:57.371Z,2.90
2022-08-05T04:28:17.735Z,2.53
2022-08-05T04:30:45.165Z,2.53
2022-08-05T04:33:12.616Z,2.67
2022-08-05T04:36:16.739Z,2.43
2022-08-05T04:38:39.487Z,2.50
2022-08-05T04:41:07.362Z,2.40
2022-08-05T04:43:36.543Z,2.60
2022-08-05T04:46:05.150Z,2.43
2022-08-05T04:48:32.260Z,2.80
2022-08-05T04:51:03.236Z,2.50
2022-08-05T04:53:36.708Z,2.33
2022-08-05T04:56:33.535Z,2.30
2022-08-05T04:58:54.347Z,3.07
2022-08-05T05:02:06.075Z,2.70
2022-08-05T05:04:08.178Z,2.50
2022-08-05T05:06:40.129Z,2.37
2022-08-05T05:09:17.746Z,2.57
2022-08-05T05:11:53.894Z,3.40
2022-08-05T05:14:27.973Z,3.40
2022-08-05T05:17:00.314Z,2.30
2022-08-05T05:19:37.215Z,2.30
2022-08-05T05:22:24.137Z,1.90
2022-08-05T05:24:59.810Z,2.50
2022-08-05T05:27:45.143Z,1.90
2022-08-05T05:30:29.190Z,2.30
2022-08-05T05:32:57.115Z,2.00
2022-08-05T05:35:37.729Z,2.30
2022-08-05T05:38:09.466Z,1.80
2022-08-05T05:40:48.045Z,2.07
2022-08-05T05:43:28.209Z,2.50
2022-08-05T05:46:03.636Z,2.30
2022-08-05T05:48:32.243Z,2.37
2022-08-05T05:51:14.960Z,2.07
2022-08-05T05:53:54.160Z,1.93
2022-08-05T05:56:31.645Z,2.07
2022-08-05T05:59:03.504Z,2.00
2022-08-05T06:01:36.937Z,1.67
2022-08-05T06:04:07.204Z,2.00
2022-08-05T06:06:34.804Z,2.37
2022-08-05T06:09:06.121Z,2.03
2022-08-05T06:11:34.591Z,2.00
2022-08-05T06:14:02.053Z,2.40
2022-08-05T06:16:36.860Z,2.10
2022-08-05T06:19:05.976Z,2.20
2022-08-05T06:21:36.602Z,2.70
2022-08-05T06:24:11.765Z,1.90
2022-08-05T06:26:40.246Z,2.70
2022-08-05T06:29:42.860Z,2.67
2022-08-05T06:32:20.886Z,2.43
2022-08-05T06:34:53.567Z,2.73
2022-08-05T06:37:52.424Z,1.93
2022-08-05T06:40:09.341Z,2.40
2022-08-05T06:42:36.835Z,2.77
2022-08-05T06:45:08.672Z,2.83
2022-08-05T06:48:36.384Z,2.63
2022-08-05T06:50:22.983Z,2.20
2022-08-05T06:52:58.855Z,2.27
2022-08-05T06:55:36.329Z,2.30
2022-08-05T06:58:20.335Z,3.23
2022-08-05T07:00:50.458Z,2.10
2022-08-05T07:03:17.658Z,2.90
2022-08-05T07:05:46.284Z,2.57
2022-08-05T07:08:13.270Z,2.50
2022-08-05T07:10:53.439Z,2.30
2022-08-05T07:13:57.748Z,2.70
2022-08-05T07:17:58.838Z,2.43
2022-08-05T07:20:10.477Z,2.37
2022-08-05T07:22:17.596Z,2.87
2022-08-05T07:24:53.597Z,2.70
2022-08-05T07:27:21.589Z,2.60
2022-08-05T07:30:27.399Z,2.77
2022-08-05T07:32:38.853Z,2.03
2022-08-05T07:36:02.247Z,2.80
2022-08-05T07:37:56.785Z,2.07
2022-08-05T07:40:31.478Z,2.33
2022-08-05T07:42:59.574Z,2.30
2022-08-05T07:45:56.580Z,2.20
2022-08-05T07:49:01.878Z,2.63
2022-08-05T07:51:23.527Z,2.50
2022-08-05T07:53:55.253Z,2.93
2022-08-05T07:57:00.264Z,2.50
2022-08-05T07:59:08.781Z,2.77
2022-08-05T08:01:35.711Z,2.10
2022-08-05T08:04:37.500Z,2.43
2022-08-05T08:07:07.208Z,2.83
2022-08-05T08:09:34.867Z,2.83
2022-08-05T08:12:09.090Z,2.20
2022-08-05T08:14:38.187Z,2.93
2022-08-05T08:17:10.887Z,2.50
2022-08-05T08:20:23.402Z,2.50
2022-08-05T08:22:30.379Z,2.67
2022-08-05T08:25:03.130Z,2.20
2022-08-05T08:27:35.814Z,2.40
2022-08-05T08:30:27.663Z,2.43
2022-08-05T08:32:58.536Z,2.17
2022-08-05T08:35:35.183Z,2.10
2022-08-05T08:38:08.652Z,1.90
2022-08-05T08:40:50.447Z,2.03
2022-08-05T08:45:20.894Z,1.87
2022-08-05T08:46:09.962Z,1.80
2022-08-05T08:49:02.474Z,1.80
2022-08-05T08:52:06.116Z,1.57
2022-08-05T08:54:18.311Z,1.50
2022-08-05T08:56:47.695Z,1.73
2022-08-05T08:59:19.346Z,1.57
2022-08-05T09:01:57.246Z,2.07
2022-08-05T09:04:30.535Z,1.80
2022-08-05T09:06:58.507Z,1.90
2022-08-05T09:09:25.949Z,1.77
2022-08-05T09:12:03.400Z,2.20
2022-08-05T09:14:56.854Z,2.30
2022-08-05T09:17:42.283Z,1.50
2022-08-05T09:20:08.536Z,1.70
2022-08-05T09:23:09.343Z,1.67
2022-08-05T09:26:01.958Z,1.80
2022-08-05T09:28:32.282Z,1.40
2022-08-05T09:32:38.796Z,2.07
2022-08-05T09:34:01.433Z,2.03
2022-08-05T09:36:54.989Z,2.00
2022-08-05T09:39:27.778Z,1.80
2022-08-05T09:42:08.786Z,1.40
2022-08-05T09:44:49.438Z,1.23
2022-08-05T09:47:20.610Z,1.90
2022-08-05T09:50:01.151Z,1.80
2022-08-05T09:52:34.289Z,1.70
2022-08-05T09:55:57.495Z,1.80
2022-08-05T09:58:00.008Z,1.60
2022-08-05T10:00:29.718Z,1.43
2022-08-05T10:02:58.409Z,1.50
2022-08-05T10:05:27.793Z,1.70
2022-08-05T10:08:35.141Z,1.63
2022-08-05T10:10:54.062Z,1.53
2022-08-05T10:13:45.571Z,1.40
2022-08-05T10:16:41.870Z,1.43
2022-08-05T10:19:23.481Z,1.40
2022-08-05T10:21:58.922Z,1.60
2022-08-05T10:24:27.207Z,1.33
2022-08-05T10:27:00.224Z,1.43
2022-08-05T10:30:07.014Z,1.60
2022-08-05T10:33:01.674Z,1.40
2022-08-05T10:35:03.415Z,1.13
2022-08-05T10:37:39.996Z,1.40
2022-08-05T10:40:33.188Z,1.50
2022-08-05T10:43:36.288Z,1.20
2022-08-05T10:46:07.361Z,1.40
2022-08-05T10:48:56.813Z,1.63
2022-08-05T10:51:29.128Z,1.50
2022-08-05T10:54:01.774Z,1.50
2022-08-05T10:56:49.287Z,1.20
2022-08-05T11:00:02.103Z,1.10
2022-08-05T11:02:37.460Z,1.30
2022-08-05T11:05:04.988Z,1.70
2022-08-05T11:07:33.217Z,1.53
2022-08-05T11:10:27.446Z,1.73
2022-08-05T11:12:55.925Z,1.50
2022-08-05T11:15:59.236Z,1.30
2022-08-05T11:18:35.085Z,1.20
2022-08-05T11:21:06.184Z,1.30
2022-08-05T11:24:04.527Z,1.50
2022-08-05T11:26:40.952Z,1.20
2022-08-05T11:29:40.923Z,1.10
2022-08-05T11:32:27.541Z,0.93
2022-08-05T11:34:55.231Z,1.03
2022-08-05T11:38:26.509Z,1.10
2022-08-05T11:41:01.311Z,1.10
2022-08-05T11:44:00.940Z,1.10
2022-08-05T11:46:35.680Z,0.90
2022-08-05T11:49:03.871Z,1.30
2022-08-05T11:51:44.811Z,1.07
2022-08-05T11:54:43.615Z,1.07
2022-08-05T11:57:24.859Z,1.30
2022-08-05T11:59:52.807Z,1.20
2022-08-05T12:02:31.633Z,1.10
2022-08-05T12:05:01.367Z,1.10
2022-08-05T12:08:03.274Z,1.13
2022-08-05T12:10:43.468Z,1.10
2022-08-05T12:13:28.344Z,1.03
2022-08-05T12:16:14.951Z,1.10
2022-08-05T12:18:42.792Z,1.30
2022-08-05T12:21:21.262Z,1.23
2022-08-05T12:24:06.888Z,1.20
2022-08-05T12:26:36.778Z,1.10
2022-08-05T12:29:09.521Z,1.13
2022-08-05T12:31:44.894Z,1.40
2022-08-05T12:34:20.378Z,1.03
2022-08-05T12:36:49.840Z,1.27
2022-08-05T12:39:17.678Z,1.50
2022-08-05T12:41:45.687Z,2.27
2022-08-05T12:44:28.602Z,1.20
2022-08-05T12:47:01.775Z,1.50
2022-08-05T12:50:04.369Z,1.10
2022-08-05T12:52:32.289Z,1.27
2022-08-05T12:55:15.655Z,1.23
2022-08-05T12:58:38.526Z,1.90
2022-08-05T13:02:02.674Z,1.47
2022-08-05T13:03:20.415Z,1.17
2022-08-05T13:05:50.066Z,1.20
2022-08-05T13:08:19.967Z,1.27
2022-08-05T13:10:50.712Z,1.30
2022-08-05T13:14:04.814Z,1.47
2022-08-05T13:16:13.028Z,1.17
2022-08-05T13:18:51.778Z,1.77
2022-08-05T13:21:18.509Z,1.30
2022-08-05T13:23:50.716Z,1.70
2022-08-05T13:26:20.932Z,1.63
2022-08-05T13:28:56.686Z,1.47
2022-08-05T13:31:33.835Z,1.40
2022-08-05T13:34:23.605Z,1.60
2022-08-05T13:36:53.604Z,1.37
2022-08-05T13:39:24.573Z,1.40
2022-08-05T13:42:08.076Z,1.23
2022-08-05T13:44:45.877Z,1.40
2022-08-05T13:47:35.074Z,1.53
2022-08-05T13:50:11.316Z,1.40
2022-08-05T13:52:41.748Z,1.10
2022-08-05T13:55:10.779Z,1.17
2022-08-05T13:57:51.136Z,1.50
2022-08-05T14:00:26.794Z,1.30
2022-08-05T14:02:55.777Z,1.40
2022-08-05T14:05:29.419Z,1.50
2022-08-05T14:08:11.122Z,2.10
2022-08-05T14:10:47.531Z,1.20
2022-08-05T14:13:15.486Z,1.40
2022-08-05T14:16:08.908Z,1.30
2022-08-05T14:18:29.019Z,1.80
2022-08-05T14:20:55.747Z,1.50
2022-08-05T14:23:25.782Z,1.90
2022-08-05T14:25:58.991Z,1.73
2022-08-05T14:28:28.079Z,1.77
2022-08-05T14:30:56.442Z,1.40
2022-08-05T14:33:23.900Z,2.00
2022-08-05T14:35:52.285Z,1.63
2022-08-05T14:38:31.639Z,1.90
2022-08-05T14:41:00.185Z,1.70
2022-08-05T14:44:01.493Z,1.93
2022-08-05T14:46:13.753Z,1.70
2022-08-05T14:48:40.758Z,1.70
2022-08-05T14:51:08.373Z,2.20
2022-08-05T14:53:44.518Z,1.57
2022-08-05T14:56:11.982Z,2.03
2022-08-05T14:58:47.875Z,1.70
2022-08-05T15:01:24.324Z,1.50
2022-08-05T15:04:09.956Z,1.57
2022-08-05T15:06:38.820Z,2.00
2022-08-05T15:09:07.285Z,1.60
2022-08-05T15:11:51.731Z,1.80
2022-08-05T15:14:35.753Z,1.77
2022-08-05T15:17:09.962Z,2.00
2022-08-05T15:19:55.661Z,1.97
2022-08-05T15:22:26.948Z,2.00
2022-08-05T15:24:55.316Z,2.07
2022-08-05T15:27:22.344Z,1.90
2022-08-05T15:29:52.986Z,2.17
2022-08-05T15:32:28.611Z,2.23
2022-08-05T15:34:56.809Z,2.00
2022-08-05T15:38:32.589Z,2.00
2022-08-05T15:41:01.277Z,2.63
2022-08-05T15:43:09.362Z,2.23
2022-08-05T15:45:45.584Z,2.17
2022-08-05T15:48:14.134Z,2.53
2022-08-05T15:50:43.913Z,2.97
2022-08-05T15:53:13.122Z,2.70
2022-08-05T15:56:03.071Z,2.40
2022-08-05T15:58:30.162Z,2.60
2022-08-05T16:01:16.125Z,2.57
2022-08-05T16:03:48.274Z,3.00
2022-08-05T16:06:15.316Z,2.40
2022-08-05T16:08:47.399Z,2.20
2022-08-05T16:11:14.234Z,2.80
2022-08-05T16:13:41.717Z,2.03
2022-08-05T16:16:10.707Z,2.20
2022-08-05T16:18:52.282Z,2.47
2022-08-05T16:21:20.566Z,2.57
2022-08-05T16:24:12.598Z,3.73
2022-08-05T16:26:54.422Z,3.07
2022-08-05T16:29:22.225Z,3.50
2022-08-05T16:31:56.620Z,3.30
2022-08-05T16:34:25.387Z,3.30
2022-08-05T16:36:53.334Z,3.13
2022-08-05T16:39:20.932Z,3.47
2022-08-05T16:42:27.859Z,3.73
2022-08-05T16:44:35.093Z,3.13
2022-08-05T16:47:04.481Z,3.80
2022-08-05T16:49:31.268Z,3.20
2022-08-05T16:51:57.932Z,3.33
2022-08-05T16:54:31.854Z,3.30
2022-08-05T16:56:59.823Z,3.50
2022-08-05T16:59:27.746Z,4.00
2022-08-05T17:01:57.282Z,3.50
2022-08-05T17:04:28.311Z,3.87
2022-08-05T17:06:59.992Z,2.97
2022-08-05T17:09:57.242Z,3.60
2022-08-05T17:12:22.366Z,3.63
2022-08-05T17:15:09.307Z,4.00
2022-08-05T17:17:42.173Z,4.47
2022-08-05T17:20:14.633Z,3.70
2022-08-05T17:22:41.706Z,3.80
2022-08-05T17:25:22.164Z,4.30
2022-08-05T17:27:55.825Z,4.10
2022-08-05T17:30:28.136Z,4.17
2022-08-05T17:32:55.383Z,4.77
2022-08-05T17:35:22.122Z,4.60
2022-08-05T17:37:49.192Z,4.23
2022-08-05T17:40:18.532Z,5.37
2022-08-05T17:42:52.000Z,5.17
2022-08-05T17:49:07.395Z,4.80
2022-08-05T17:51:40.598Z,4.80
2022-08-05T17:54:07.470Z,5.13
2022-08-05T17:56:34.820Z,4.43
2022-08-05T17:59:03.480Z,5.03
2022-08-05T18:01:30.993Z,4.40
2022-08-05T18:04:16.253Z,4.40
2022-08-05T18:06:48.199Z,5.07
2022-08-05T18:09:16.756Z,4.60
2022-08-05T18:11:43.436Z,4.10
2022-08-05T18:14:13.445Z,4.30
2022-08-05T18:16:43.709Z,4.30
2022-08-05T18:19:18.704Z,4.50
2022-08-05T18:22:08.523Z,3.90
2022-08-05T18:24:37.821Z,4.30
2022-08-05T18:27:18.157Z,4.23
2022-08-05T18:29:53.699Z,3.30
2022-08-05T18:32:28.250Z,3.47
2022-08-05T18:34:56.891Z,3.70
2022-08-05T18:37:34.756Z,3.33
2022-08-05T18:40:31.689Z,3.37
2022-08-05T18:42:56.443Z,3.27
2022-08-05T18:45:23.755Z,3.37
2022-08-05T18:47:56.599Z,3.07
2022-08-05T18:50:46.873Z,3.40
2022-08-05T18:53:19.240Z,2.80
2022-08-05T18:55:49.555Z,3.20
2022-08-05T18:58:16.564Z,3.20
2022-08-05T19:00:43.418Z,2.87
2022-08-05T19:03:14.931Z,2.43
2022-08-05T19:06:11.757Z,3.17
2022-08-05T19:08:30.476Z,2.50
2022-08-05T19:10:59.366Z,3.10
2022-08-05T19:13:26.140Z,2.70
2022-08-05T19:15:58.902Z,3.20
2022-08-05T19:18:27.969Z,2.50
2022-08-05T19:20:55.674Z,2.50
2022-08-05T19:24:07.747Z,2.60
2022-08-05T19:26:11.205Z,2.50
2022-08-05T19:28:43.401Z,2.10
2022-08-05T19:31:13.606Z,2.10
2022-08-05T19:33:48.642Z,2.40
2022-08-05T19:36:23.315Z,2.13
2022-08-05T19:38:50.026Z,1.67
2022-08-05T19:41:16.720Z,2.10
2022-08-05T19:44:05.966Z,1.83
2022-08-05T19:46:35.367Z,2.07
2022-08-05T19:49:07.063Z,1.50
2022-08-05T19:52:13.188Z,2.33
2022-08-05T19:54:29.543Z,2.00
2022-08-05T19:57:06.859Z,2.07
2022-08-05T19:59:59.369Z,1.50
2022-08-05T20:02:24.340Z,1.80
2022-08-05T20:04:53.137Z,1.63
2022-08-05T20:07:46.346Z,1.47
2022-08-05T20:10:13.246Z,1.27
2022-08-05T20:12:48.042Z,1.43
2022-08-05T20:15:23.399Z,1.10
2022-08-05T20:18:10.205Z,1.13
2022-08-05T20:20:56.178Z,1.40
2022-08-05T20:23:39.269Z,1.00
2022-08-05T20:26:16.613Z,1.27
2022-08-05T20:28:52.740Z,1.20
2022-08-05T20:31:21.578Z,1.30
2022-08-05T20:33:50.160Z,1.20
2022-08-05T20:36:18.060Z,1.20
2022-08-05T20:38:53.408Z,1.30
2022-08-05T20:41:23.977Z,1.23
2022-08-05T20:43:59.581Z,1.00
2022-08-05T20:46:30.024Z,1.20
2022-08-05T20:48:57.429Z,1.20
2022-08-05T20:51:24.085Z,1.33
2022-08-05T20:53:56.312Z,1.10
2022-08-05T20:56:29.748Z,1.40
2022-08-05T20:59:13.888Z,1.00
2022-08-05T21:01:42.822Z,1.20
2022-08-05T21:04:12.612Z,1.00
2022-08-05T21:06:45.287Z,0.90
2022-08-05T21:09:14.724Z,0.90
2022-08-05T21:12:09.345Z,1.13
2022-08-05T21:14:34.815Z,1.07
2022-08-05T21:17:05.882Z,0.97
2022-08-05T21:19:47.400Z,0.97
2022-08-05T21:22:17.785Z,1.03
2022-08-05T21:24:49.027Z,1.10
2022-08-05T21:27:20.528Z,1.13
2022-08-05T21:29:51.534Z,0.90
2022-08-05T21:32:26.822Z,0.97
2022-08-05T21:35:08.958Z,1.07
2022-08-05T21:37:42.500Z,1.10
2022-08-05T21:40:14.235Z,1.00
2022-08-05T21:42:45.179Z,1.00
2022-08-05T21:45:17.594Z,0.93
2022-08-05T21:47:56.213Z,1.10
2022-08-05T21:50:24.139Z,1.27
2022-08-05T21:52:50.859Z,1.00
2022-08-05T21:55:43.164Z,0.90
2022-08-05T21:58:06.193Z,0.87
2022-08-05T22:00:32.977Z,1.00
2022-08-05T22:03:00.403Z,1.00
2022-08-05T22:05:27.251Z,1.07
2022-08-05T22:07:59.286Z,1.07
2022-08-05T22:10:29.313Z,1.23
2022-08-05T22:13:08.779Z,1.63
2022-08-05T22:16:00.595Z,1.07
2022-08-05T22:18:28.753Z,1.10
2022-08-05T22:20:56.777Z,1.33
2022-08-05T22:24:02.509Z,1.10
2022-08-05T22:26:50.517Z,1.20
2022-08-05T22:29:17.643Z,1.10
2022-08-05T22:31:45.758Z,1.13
2022-08-05T22:34:28.226Z,1.13
2022-08-05T22:36:56.790Z,1.10
2022-08-05T22:39:29.757Z,1.17
2022-08-05T22:42:09.416Z,1.23
2022-08-05T22:44:40.358Z,1.10
2022-08-05T22:47:07.062Z,1.00
2022-08-05T22:50:19.483Z,1.53
2022-08-05T22:52:30.121Z,0.90
2022-08-05T22:54:58.896Z,1.40
2022-08-05T22:57:25.610Z,0.90
2022-08-05T22:59:54.310Z,1.30
2022-08-05T23:02:28.899Z,1.30
2022-08-05T23:04:58.298Z,1.23
2022-08-05T23:07:30.271Z,2.23
2022-08-05T23:10:02.170Z,1.13
2022-08-05T23:12:32.875Z,1.30
2022-08-05T23:15:09.158Z,1.37
2022-08-05T23:17:37.900Z,1.10
2022-08-05T23:20:23.494Z,0.80
2022-08-05T23:22:55.624Z,1.00
2022-08-05T23:25:50.923Z,1.30
2022-08-05T23:28:10.286Z,1.30
2022-08-05T23:30:40.215Z,1.23
2022-08-05T23:33:21.936Z,1.63
2022-08-05T23:35:50.203Z,1.20
2022-08-05T23:38:17.177Z,1.37
2022-08-05T23:40:50.087Z,1.30
2022-08-05T23:43:25.091Z,1.37
2022-08-05T23:46:20.064Z,0.90
2022-08-05T23:49:01.051Z,1.43
2022-08-05T23:51:54.036Z,1.00
2022-08-05T23:54:26.656Z,1.10
2022-08-05T23:57:03.722Z,1.17
